Time;durP1;ratioP1;P1;durP2;ratioP2;P2;SDS_P1;SDS_P2;PMS_P1;PMS_P2;Temp;Humidity;BMP_temperature;BMP_pressure;BME280_temperature;BME280_humidity;BME280_pressure;Samples;Min_cycle;Max_cycle;Signal;HPM_P1;HPM_P2
2024/01/14 00:00:12;;;;;;;80.17;37.60;;;;;;;-2.96;75.47;100711.53;2542116;28;20306;-74
2024/01/14 00:01:27;;;;;;;87.40;35.63;;;;;;;-2.96;75.59;100717.53;2542783;28;20303;-74
2024/01/14 00:02:41;;;;;;;81.63;35.43;;;;;;;-2.95;75.30;100713.28;2542621;28;20295;-75
2024/01/14 00:03:56;;;;;;;80.57;38.47;;;;;;;-2.95;75.46;100713.28;2542188;28;20286;-75
2024/01/14 00:05:10;;;;;;;80.00;35.47;;;;;;;-2.99;75.15;100712.28;2542610;28;20053;-75
2024/01/14 00:06:25;;;;;;;70.87;31.17;;;;;;;-3.03;75.74;100705.25;2542370;28;20310;-75
2024/01/14 00:07:40;;;;;;;79.20;33.00;;;;;;;-3.06;75.12;100705.13;2530951;28;20052;-75
2024/01/14 00:08:54;;;;;;;75.80;35.50;;;;;;;-3.08;75.70;100691.41;2522690;28;20319;-75
2024/01/14 00:10:09;;;;;;;71.83;25.93;;;;;;;-3.09;75.63;100697.31;2522672;28;20778;-74
2024/01/14 00:11:23;;;;;;;76.53;31.23;;;;;;;-3.09;75.68;100700.75;2521622;28;20368;-74
2024/01/14 00:12:37;;;;;;;66.70;27.20;;;;;;;-3.07;75.51;100699.16;2522621;28;20381;-75
2024/01/14 00:13:54;;;;;;;67.20;32.70;;;;;;;-3.08;75.60;100692.28;2522707;28;20327;-74
2024/01/14 00:15:08;;;;;;;71.83;34.30;;;;;;;-3.08;75.76;100693.97;2522954;28;20454;-74
2024/01/14 00:16:23;;;;;;;68.33;31.10;;;;;;;-3.08;75.92;100694.81;2532521;28;20303;-74
2024/01/14 00:17:37;;;;;;;71.73;30.43;;;;;;;-3.08;75.23;100701.63;2532553;28;20361;-74
2024/01/14 00:18:51;;;;;;;66.60;31.60;;;;;;;-3.10;75.25;100696.47;2532499;28;20793;-74
2024/01/14 00:20:07;;;;;;;68.80;33.47;;;;;;;-3.11;75.89;100689.59;2531178;28;20072;-74
2024/01/14 00:21:22;;;;;;;75.17;35.93;;;;;;;-3.10;75.73;100688.81;2532673;28;20315;-75
2024/01/14 00:22:36;;;;;;;64.60;31.20;;;;;;;-3.10;75.67;100690.44;2532605;28;20383;-75
2024/01/14 00:23:50;;;;;;;74.97;32.53;;;;;;;-3.09;75.43;100687.97;2538020;28;20287;-75
2024/01/14 00:25:04;;;;;;;68.67;32.90;;;;;;;-3.08;75.82;100691.41;2533668;28;20057;-74
2024/01/14 00:26:20;;;;;;;72.30;36.90;;;;;;;-3.09;75.54;100682.88;2532472;28;20314;-75
2024/01/14 00:27:34;;;;;;;65.33;31.70;;;;;;;-3.13;75.56;100688.63;2527651;28;20343;-75
2024/01/14 00:28:48;;;;;;;72.03;28.67;;;;;;;-3.15;75.35;100685.16;2528514;28;20777;-75
2024/01/14 00:30:04;;;;;;;66.17;28.10;;;;;;;-3.14;75.53;100681.78;2524751;28;20138;-74
2024/01/14 00:31:19;;;;;;;69.63;31.87;;;;;;;-3.14;75.43;100679.25;2522076;28;20328;-74
2024/01/14 00:32:32;;;;;;;68.73;30.70;;;;;;;-3.13;75.74;100672.44;2526446;28;20307;-75
2024/01/14 00:33:49;;;;;;;69.37;33.47;;;;;;;-3.13;75.54;100669.91;2526753;28;20311;-75
2024/01/14 00:35:04;;;;;;;78.47;29.20;;;;;;;-3.14;75.55;100663.91;2530042;28;20056;-75
2024/01/14 00:36:19;;;;;;;67.87;32.90;;;;;;;-3.13;75.72;100667.34;2530882;28;20312;-75
2024/01/14 00:37:32;;;;;;;73.60;35.00;;;;;;;-3.12;75.32;100659.78;2527474;28;20814;-75
2024/01/14 00:38:47;;;;;;;62.67;27.87;;;;;;;-3.11;75.49;100658.09;2536452;28;20316;-75
2024/01/14 00:40:00;;;;;;;67.00;31.30;;;;;;;-3.09;75.45;100659.91;2524225;28;20048;-75
2024/01/14 00:41:15;;;;;;;62.00;28.60;;;;;;;-3.09;75.45;100654.78;2530253;28;20382;-75
2024/01/14 00:42:28;;;;;;;61.80;30.00;;;;;;;-3.08;75.90;100646.31;2525665;28;20053;-75
2024/01/14 00:43:44;;;;;;;71.30;31.93;;;;;;;-3.06;75.66;100648.97;2525546;28;20284;-75
2024/01/14 00:44:57;;;;;;;65.87;29.47;;;;;;;-3.09;75.70;100644.59;2529562;28;20060;-75
2024/01/14 00:46:13;;;;;;;59.53;27.70;;;;;;;-3.07;75.71;100648.09;2523600;28;20387;-75
2024/01/14 00:47:30;;;;;;;62.60;28.07;;;;;;;-3.05;75.75;100639.63;2528631;28;20111;-75
2024/01/14 00:48:44;;;;;;;74.33;33.73;;;;;;;-3.07;75.45;100635.31;2521547;28;20319;-76
2024/01/14 00:49:58;;;;;;;63.23;29.53;;;;;;;-3.08;75.37;100631.00;2529505;28;20307;-75
2024/01/14 00:51:12;;;;;;;60.87;30.27;;;;;;;-3.10;75.12;100632.63;2523853;28;20395;-75
2024/01/14 00:52:25;;;;;;;74.27;32.73;;;;;;;-3.10;75.39;100631.75;2529782;28;20044;-75
2024/01/14 00:53:40;;;;;;;65.03;33.37;;;;;;;-3.13;75.40;100624.81;2527125;28;20308;-75
2024/01/14 00:54:53;;;;;;;70.90;33.03;;;;;;;-3.10;75.27;100621.53;2525574;28;20499;-75
2024/01/14 00:56:08;;;;;;;67.07;31.90;;;;;;;-3.09;75.31;100621.59;2529830;28;20290;-75
2024/01/14 00:57:21;;;;;;;69.70;28.00;;;;;;;-3.07;75.50;100620.00;2523804;28;20426;-75
2024/01/14 00:58:35;;;;;;;74.87;33.60;;;;;;;-3.07;75.80;100622.56;2528253;28;20315;-75
2024/01/14 00:59:49;;;;;;;75.70;34.47;;;;;;;-3.07;75.67;100617.44;2527730;28;20049;-75
2024/01/14 01:01:03;;;;;;;74.63;33.03;;;;;;;-3.05;75.27;100616.63;2524184;28;20309;-75
2024/01/14 01:02:18;;;;;;;65.40;30.60;;;;;;;-3.03;75.37;100612.47;2530323;28;20144;-75
2024/01/14 01:03:33;;;;;;;64.13;26.83;;;;;;;-3.04;75.60;100606.50;2521800;28;20280;-75
2024/01/14 01:04:47;;;;;;;62.97;30.97;;;;;;;-3.03;75.21;100605.69;2527943;28;20819;-75
2024/01/14 01:06:01;;;;;;;68.97;32.37;;;;;;;-3.02;75.39;100609.13;2524514;28;20316;-75
2024/01/14 01:07:14;;;;;;;69.33;36.90;;;;;;;-3.03;75.02;100605.69;2529849;28;20517;-75
2024/01/14 01:08:29;;;;;;;56.30;30.50;;;;;;;-3.03;74.95;100609.94;2525419;28;20310;-75
2024/01/14 01:09:42;;;;;;;71.87;34.03;;;;;;;-3.04;75.46;100605.63;2527291;28;20045;-75
2024/01/14 01:10:57;;;;;;;59.23;27.90;;;;;;;-3.04;75.37;100608.19;2529262;28;20857;-75
2024/01/14 01:12:10;;;;;;;57.50;31.13;;;;;;;-3.05;75.25;100607.28;2523308;28;20050;-75
2024/01/14 01:13:24;;;;;;;65.70;30.73;;;;;;;-3.05;75.49;100611.53;2525025;28;20311;-74
2024/01/14 01:14:38;;;;;;;71.83;31.00;;;;;;;-3.07;75.45;100602.13;2526653;28;20525;-75
2024/01/14 01:15:52;;;;;;;67.27;28.87;;;;;;;-3.09;74.81;100596.09;2525587;28;20293;-75
2024/01/14 01:17:06;;;;;;;66.53;34.43;;;;;;;-3.08;75.03;100595.25;2521591;28;20053;-75
2024/01/14 01:18:21;;;;;;;67.77;26.93;;;;;;;-3.10;75.35;100596.91;2523827;28;20802;-74
2024/01/14 01:19:35;;;;;;;67.87;32.23;;;;;;;-3.12;75.11;100585.75;2527861;28;20042;-74
2024/01/14 01:20:51;;;;;;;58.33;26.63;;;;;;;-3.14;75.19;100583.91;2522301;28;20312;-74
2024/01/14 01:22:04;;;;;;;64.47;27.30;;;;;;;-3.14;75.28;100592.44;2530121;28;20080;-74
2024/01/14 01:23:18;;;;;;;69.40;33.77;;;;;;;-3.13;75.19;100578.00;2525641;28;20332;-74
2024/01/14 01:24:32;;;;;;;60.47;27.30;;;;;;;-3.15;75.45;100574.50;2532032;28;20407;-74
2024/01/14 01:25:46;;;;;;;57.77;28.27;;;;;;;-3.15;75.11;100572.84;2530758;28;20314;-74
2024/01/14 01:27:00;;;;;;;60.90;28.23;;;;;;;-3.13;75.01;100578.00;2527621;28;20054;-74
2024/01/14 01:28:14;;;;;;;58.80;27.27;;;;;;;-3.13;74.82;100578.88;2533627;28;20308;-75
2024/01/14 01:29:28;;;;;;;57.27;30.07;;;;;;;-3.13;75.01;100575.44;2528176;28;20445;-75
2024/01/14 01:30:42;;;;;;;69.37;32.13;;;;;;;-3.16;75.28;100583.84;2530557;28;20383;-75
2024/01/14 01:31:56;;;;;;;60.77;28.33;;;;;;;-3.17;75.28;100571.91;2524990;28;20046;-75
2024/01/14 01:33:10;;;;;;;66.83;31.33;;;;;;;-3.16;75.40;100573.63;2533631;28;20646;-75
2024/01/14 01:34:25;;;;;;;59.07;30.27;;;;;;;-3.15;74.98;100572.84;2527527;28;20049;-75
2024/01/14 01:35:40;;;;;;;57.53;31.17;;;;;;;-3.14;74.92;100571.16;2530347;28;20368;-75
2024/01/14 01:36:53;;;;;;;59.53;28.87;;;;;;;-3.15;74.83;100572.84;2531594;28;20383;-75
2024/01/14 01:38:08;;;;;;;60.80;30.23;;;;;;;-3.13;74.69;100570.34;2527318;28;20820;-74
2024/01/14 01:39:21;;;;;;;50.27;26.17;;;;;;;-3.15;75.07;100567.75;2525035;28;20046;-75
2024/01/14 01:40:35;;;;;;;59.43;28.93;;;;;;;-3.14;74.92;100569.47;2529442;28;20335;-75
2024/01/14 01:41:50;;;;;;;64.13;27.87;;;;;;;-3.15;74.69;100562.63;2529694;28;20041;-75
2024/01/14 01:43:04;;;;;;;59.90;27.73;;;;;;;-3.15;75.11;100569.38;2532646;28;20310;-74
2024/01/14 01:44:18;;;;;;;61.77;30.60;;;;;;;-3.15;75.13;100557.53;2526866;28;20303;-74
2024/01/14 01:45:32;;;;;;;64.90;27.37;;;;;;;-3.15;74.76;100559.19;2531927;28;20304;-75
2024/01/14 01:46:46;;;;;;;66.23;30.53;;;;;;;-3.16;74.77;100548.09;2525484;28;20046;-74
2024/01/14 01:48:01;;;;;;;64.97;29.60;;;;;;;-3.16;75.07;100548.09;2531860;28;20284;-74
2024/01/14 01:49:15;;;;;;;61.53;31.60;;;;;;;-3.16;74.84;100558.31;2526954;28;20353;-74
2024/01/14 01:50:30;;;;;;;70.67;28.07;;;;;;;-3.17;74.76;100556.56;2532692;28;20404;-74
2024/01/14 01:51:47;;;;;;;65.37;32.23;;;;;;;-3.18;74.47;100561.59;2529941;28;20041;-75
2024/01/14 01:53:01;;;;;;;61.73;29.97;;;;;;;-3.23;74.34;100563.94;2528082;28;20300;-75
2024/01/14 01:54:16;;;;;;;74.57;32.43;;;;;;;-3.24;74.88;100559.66;2532898;28;20304;-75
2024/01/14 01:55:31;;;;;;;71.23;31.40;;;;;;;-3.25;74.92;100557.91;2527991;28;20362;-75
2024/01/14 01:56:45;;;;;;;59.63;29.47;;;;;;;-3.27;74.55;100556.09;2531040;28;20324;-75
2024/01/14 01:57:59;;;;;;;69.43;33.03;;;;;;;-3.28;74.58;100550.09;2526596;28;20678;-75
2024/01/14 01:59:13;;;;;;;64.43;31.63;;;;;;;-3.29;74.93;100553.47;2533132;28;20053;-75
2024/01/14 02:00:28;;;;;;;64.93;29.33;;;;;;;-3.30;74.61;100544.94;2527831;28;20777;-74
2024/01/14 02:01:43;;;;;;;66.13;32.33;;;;;;;-3.30;74.98;100550.03;2530909;28;20045;-74
2024/01/14 02:02:58;;;;;;;64.57;29.37;;;;;;;-3.32;74.42;100538.88;2531727;28;20785;-74
2024/01/14 02:04:12;;;;;;;63.77;31.77;;;;;;;-3.29;74.75;100548.34;2526310;28;20288;-74
2024/01/14 02:05:28;;;;;;;64.33;30.07;;;;;;;-3.30;74.78;100531.31;2532799;28;20410;-74
2024/01/14 02:06:43;;;;;;;59.53;29.87;;;;;;;-3.27;75.01;100546.75;2529566;28;20804;-74
2024/01/14 02:07:59;;;;;;;73.43;34.30;;;;;;;-3.26;74.84;100538.28;2528041;28;20289;-74
2024/01/14 02:09:12;;;;;;;76.50;32.47;;;;;;;-3.25;75.19;100534.94;2533327;28;20326;-74
2024/01/14 02:10:27;;;;;;;60.17;31.47;;;;;;;-3.24;74.96;100536.69;2527750;28;20309;-74
2024/01/14 02:11:40;;;;;;;58.50;26.17;;;;;;;-3.22;74.56;100534.22;2530381;28;20525;-75
2024/01/14 02:12:57;;;;;;;59.17;27.90;;;;;;;-3.23;74.91;100535.88;2530980;28;20310;-74
2024/01/14 02:14:10;;;;;;;62.73;27.97;;;;;;;-3.24;74.80;100536.69;2526762;28;20491;-75
2024/01/14 02:15:24;;;;;;;70.43;29.17;;;;;;;-3.22;74.49;100535.06;2526638;28;20291;-75
2024/01/14 02:16:38;;;;;;;75.63;31.73;;;;;;;-3.25;74.83;100539.16;2531213;28;20104;-75
2024/01/14 02:17:52;;;;;;;71.90;33.77;;;;;;;-3.28;74.99;100534.78;2531051;28;20362;-75
2024/01/14 02:19:06;;;;;;;75.63;39.70;;;;;;;-3.26;75.08;100538.28;2526993;28;20513;-75
2024/01/14 02:20:20;;;;;;;69.47;33.37;;;;;;;-3.24;75.15;100533.25;2533296;28;20315;-75
2024/01/14 02:21:51;;;;;;;71.93;29.83;;;;;;;-3.22;74.74;100534.22;2528503;28;20045;-75
2024/01/14 02:23:07;;;;;;;64.30;30.33;;;;;;;-3.22;74.95;100532.53;2527205;28;20362;-75
2024/01/14 02:24:26;;;;;;;54.90;28.07;;;;;;;-3.20;74.66;100543.69;2533282;28;20358;-75
2024/01/14 02:25:40;;;;;;;60.63;29.97;;;;;;;-3.21;74.87;100544.47;2529242;28;20303;-75
2024/01/14 02:26:54;;;;;;;69.93;32.23;;;;;;;-3.20;75.00;100537.69;2528954;28;20307;-75
2024/01/14 02:28:09;;;;;;;69.67;30.57;;;;;;;-3.21;74.92;100538.50;2532707;28;20284;-75
2024/01/14 02:29:22;;;;;;;71.20;29.93;;;;;;;-3.25;74.29;100534.03;2525037;28;20426;-75
2024/01/14 02:30:37;;;;;;;67.23;31.03;;;;;;;-3.29;74.27;100539.00;2528843;28;20304;-75
2024/01/14 02:31:50;;;;;;;70.67;34.27;;;;;;;-3.32;74.27;100528.69;2529196;28;20414;-75
2024/01/14 02:33:05;;;;;;;66.33;34.40;;;;;;;-3.32;74.29;100525.25;2525120;28;20383;-75
2024/01/14 02:34:19;;;;;;;76.70;30.67;;;;;;;-3.33;74.67;100538.81;2524160;28;20133;-75
2024/01/14 02:35:34;;;;;;;78.87;31.17;;;;;;;-3.33;74.43;100538.81;2526012;28;21002;-75
2024/01/14 02:36:47;;;;;;;70.50;30.33;;;;;;;-3.36;74.91;100538.66;2528544;28;20125;-75
2024/01/14 02:38:01;;;;;;;70.17;29.80;;;;;;;-3.37;74.93;100534.38;2530458;28;20304;-74
2024/01/14 02:39:16;;;;;;;75.87;33.80;;;;;;;-3.34;74.92;100539.63;2524321;28;20521;-74
2024/01/14 02:40:33;;;;;;;73.00;29.37;;;;;;;-3.34;74.85;100537.94;2526286;28;20673;-75
2024/01/14 02:41:46;;;;;;;71.37;32.30;;;;;;;-3.32;74.97;100528.69;2528644;28;20303;-75
2024/01/14 02:43:01;;;;;;;69.73;36.00;;;;;;;-3.30;75.04;100532.19;2529850;28;20308;-74
2024/01/14 02:44:15;;;;;;;78.03;36.93;;;;;;;-3.28;75.13;100527.13;2525032;28;20538;-75
2024/01/14 02:45:30;;;;;;;65.47;31.57;;;;;;;-3.27;74.98;100523.78;2530967;28;20603;-75
2024/01/14 02:46:43;;;;;;;66.10;29.47;;;;;;;-3.26;75.17;100533.19;2527967;28;20307;-75
2024/01/14 02:47:58;;;;;;;65.03;35.33;;;;;;;-3.29;74.85;100527.94;2526513;28;20273;-75
2024/01/14 02:49:11;;;;;;;73.87;31.33;;;;;;;-3.31;74.73;100532.97;2531262;28;20483;-75
2024/01/14 02:50:26;;;;;;;68.50;31.63;;;;;;;-3.31;74.91;100534.66;2525492;28;20305;-75
2024/01/14 02:51:40;;;;;;;63.27;33.53;;;;;;;-3.32;75.11;100528.69;2528942;28;20041;-75
2024/01/14 02:52:54;;;;;;;74.80;31.37;;;;;;;-3.31;74.87;100521.88;2527622;28;20308;-75
2024/01/14 02:54:08;;;;;;;69.20;31.27;;;;;;;-3.30;74.67;100521.09;2531202;28;20046;-75
2024/01/14 02:55:22;;;;;;;75.50;31.90;;;;;;;-3.29;74.80;100520.28;2524736;28;20285;-75
2024/01/14 02:56:37;;;;;;;58.10;30.23;;;;;;;-3.29;74.88;100516.06;2529807;28;20786;-75
2024/01/14 02:57:52;;;;;;;76.80;33.53;;;;;;;-3.29;74.94;100518.59;2528786;28;20304;-75
2024/01/14 02:59:05;;;;;;;71.57;35.43;;;;;;;-3.29;74.76;100525.38;2525487;28;20323;-75
2024/01/14 03:00:20;;;;;;;65.50;32.63;;;;;;;-3.29;75.14;100523.72;2531481;28;20314;-75
2024/01/14 03:01:33;;;;;;;68.00;32.00;;;;;;;-3.30;75.04;100519.41;2523316;28;20049;-75
2024/01/14 03:02:48;;;;;;;62.33;33.67;;;;;;;-3.29;75.26;100522.84;2523311;28;20673;-75
2024/01/14 03:04:01;;;;;;;68.90;30.50;;;;;;;-3.27;74.86;100517.81;2529660;28;20046;-75
2024/01/14 03:05:15;;;;;;;70.83;31.97;;;;;;;-3.27;75.29;100523.78;2524264;28;20315;-75
2024/01/14 03:06:29;;;;;;;75.50;33.93;;;;;;;-3.25;74.84;100517.09;2525053;28;20054;-75
2024/01/14 03:07:43;;;;;;;73.67;33.87;;;;;;;-3.23;74.78;100523.09;2528549;28;20657;-75
2024/01/14 03:08:57;;;;;;;66.57;30.60;;;;;;;-3.20;75.34;100520.72;2529746;28;20056;-75
2024/01/14 03:10:11;;;;;;;74.93;36.93;;;;;;;-3.19;74.90;100525.00;2527783;28;20308;-75
2024/01/14 03:11:25;;;;;;;76.83;34.37;;;;;;;-3.21;74.82;100524.06;2522717;28;20045;-75
2024/01/14 03:12:40;;;;;;;66.03;31.03;;;;;;;-3.22;75.08;100524.88;2523187;28;20305;-75
2024/01/14 03:13:54;;;;;;;71.17;35.13;;;;;;;-3.24;75.13;100518.81;2523431;28;20053;-75
2024/01/14 03:15:08;;;;;;;72.43;32.40;;;;;;;-3.25;74.95;100505.97;2522830;28;20309;-75
2024/01/14 03:16:22;;;;;;;67.80;31.67;;;;;;;-3.26;74.66;100506.78;2524352;28;20065;-75
2024/01/14 03:17:36;;;;;;;70.70;31.47;;;;;;;-3.26;74.90;100506.78;2529806;28;20331;-75
2024/01/14 03:18:49;;;;;;;77.20;34.30;;;;;;;-3.27;75.02;100505.06;2523337;28;20046;-75
2024/01/14 03:20:04;;;;;;;68.30;31.70;;;;;;;-3.30;74.96;100511.75;2522535;28;20289;-75
2024/01/14 03:21:18;;;;;;;61.47;30.37;;;;;;;-3.32;74.99;100504.84;2523159;28;20060;-75
2024/01/14 03:22:33;;;;;;;62.17;29.83;;;;;;;-3.32;75.20;100513.38;2522840;28;20339;-75
2024/01/14 03:23:46;;;;;;;67.07;30.40;;;;;;;-3.30;74.83;100505.78;2522645;28;20050;-75
2024/01/14 03:25:01;;;;;;;64.10;31.13;;;;;;;-3.31;74.87;100520.22;2523336;28;20793;-75
2024/01/14 03:26:14;;;;;;;64.40;29.23;;;;;;;-3.32;74.70;100510.81;2522895;28;20053;-75
2024/01/14 03:27:29;;;;;;;63.87;29.27;;;;;;;-3.33;74.48;100516.75;2524436;28;20284;-75
2024/01/14 03:28:43;;;;;;;67.53;29.60;;;;;;;-3.32;74.95;100515.06;2529277;28;20046;-75
2024/01/14 03:29:58;;;;;;;63.43;28.23;;;;;;;-3.32;75.01;100507.41;2523081;28;20396;-75
2024/01/14 03:31:13;;;;;;;58.00;26.60;;;;;;;-3.33;74.45;100503.97;2522818;28;20304;-75
2024/01/14 03:32:28;;;;;;;60.47;27.63;;;;;;;-3.34;74.34;100507.31;2523170;28;20311;-74
2024/01/14 03:33:41;;;;;;;62.07;31.53;;;;;;;-3.36;74.46;100510.59;2523017;28;20293;-75
2024/01/14 03:34:56;;;;;;;64.53;28.70;;;;;;;-3.38;74.69;100507.09;2528863;28;20304;-75
2024/01/14 03:36:12;;;;;;;58.13;28.60;;;;;;;-3.36;74.40;100510.59;2524760;28;20046;-75
2024/01/14 03:37:26;;;;;;;67.00;31.10;;;;;;;-3.36;74.49;100508.06;2522815;28;20304;-75
2024/01/14 03:38:40;;;;;;;61.27;27.73;;;;;;;-3.34;74.63;100504.75;2522882;28;20666;-75
2024/01/14 03:39:54;;;;;;;71.90;31.00;;;;;;;-3.35;74.54;100502.16;2522632;28;20285;-75
2024/01/14 03:41:08;;;;;;;64.53;28.53;;;;;;;-3.36;74.08;100502.94;2522810;28;20061;-75
2024/01/14 03:42:22;;;;;;;67.33;26.93;;;;;;;-3.39;74.34;100495.16;2523585;28;20309;-75
2024/01/14 03:43:35;;;;;;;62.60;27.47;;;;;;;-3.39;74.59;100500.25;2529369;28;20396;-75
2024/01/14 03:44:51;;;;;;;69.23;29.07;;;;;;;-3.38;74.52;100496.91;2522950;28;20315;-75
2024/01/14 03:46:05;;;;;;;67.33;26.87;;;;;;;-3.37;74.30;100499.53;2522235;28;20057;-75
2024/01/14 03:47:19;;;;;;;66.30;29.33;;;;;;;-3.38;74.28;100500.34;2521703;28;21465;-75
2024/01/14 03:48:33;;;;;;;70.00;28.03;;;;;;;-3.37;73.91;100491.00;2523077;28;20057;-74
2024/01/14 03:49:47;;;;;;;55.03;27.57;;;;;;;-3.37;74.00;100498.66;2522978;28;20304;-75
2024/01/14 03:51:00;;;;;;;55.23;25.03;;;;;;;-3.39;74.05;100496.03;2522536;28;20049;-75
2024/01/14 03:52:15;;;;;;;66.27;29.00;;;;;;;-3.41;74.34;100495.06;2522774;28;20311;-75
2024/01/14 03:53:28;;;;;;;62.17;29.27;;;;;;;-3.40;74.13;100504.50;2524718;28;20049;-75
2024/01/14 03:54:43;;;;;;;66.80;26.50;;;;;;;-3.39;74.13;100497.72;2523494;28;20815;-75
2024/01/14 03:55:56;;;;;;;59.53;28.57;;;;;;;-3.38;74.20;100507.09;2528178;28;20052;-75
2024/01/14 03:57:11;;;;;;;64.50;27.27;;;;;;;-3.38;74.18;100500.34;2524741;28;20340;-75
2024/01/14 03:58:24;;;;;;;60.77;28.87;;;;;;;-3.36;74.37;100500.41;2530498;28;20123;-75
2024/01/14 03:59:39;;;;;;;53.73;24.73;;;;;;;-3.35;74.09;100494.50;2525483;28;20280;-75
2024/01/14 04:00:53;;;;;;;70.13;26.57;;;;;;;-3.34;73.96;100506.44;2527595;28;20049;-75
2024/01/14 04:02:08;;;;;;;60.97;27.13;;;;;;;-3.33;74.29;100508.19;2522901;28;20803;-75
2024/01/14 04:03:21;;;;;;;58.40;26.73;;;;;;;-3.32;74.20;100509.94;2522116;28;20284;-75
2024/01/14 04:04:36;;;;;;;62.10;29.53;;;;;;;-3.33;74.17;100496.31;2525662;28;20312;-75
2024/01/14 04:05:50;;;;;;;66.10;26.23;;;;;;;-3.34;74.37;100496.25;2527654;28;20041;-75
2024/01/14 04:07:04;;;;;;;54.60;26.37;;;;;;;-3.35;74.22;100497.94;2522094;28;20654;-75
2024/01/14 04:08:18;;;;;;;63.17;24.80;;;;;;;-3.34;74.33;100504.75;2522668;28;20077;-75
2024/01/14 04:09:32;;;;;;;68.13;28.90;;;;;;;-3.34;73.78;100489.44;2522779;28;20317;-75
2024/01/14 04:10:45;;;;;;;60.63;27.73;;;;;;;-3.36;74.24;100492.75;2526823;28;20045;-75
2024/01/14 04:12:00;;;;;;;54.50;27.67;;;;;;;-3.37;73.99;100496.09;2526205;28;20285;-75
2024/01/14 04:13:13;;;;;;;59.27;28.20;;;;;;;-3.38;74.18;100496.91;2530721;28;20054;-75
2024/01/14 04:14:28;;;;;;;63.83;27.03;;;;;;;-3.38;74.12;100499.44;2524229;28;20304;-75
2024/01/14 04:15:41;;;;;;;64.73;27.00;;;;;;;-3.38;74.11;100510.56;2528563;28;20064;-75
2024/01/14 04:16:57;;;;;;;64.53;31.23;;;;;;;-3.37;73.78;100509.72;2522446;28;20305;-75
2024/01/14 04:18:10;;;;;;;61.50;29.20;;;;;;;-3.36;73.54;100506.38;2522320;28;20068;-75
2024/01/14 04:19:25;;;;;;;57.10;27.93;;;;;;;-3.35;73.71;100504.72;2523337;28;20292;-75
2024/01/14 04:20:38;;;;;;;55.13;26.17;;;;;;;-3.37;74.05;100498.66;2529522;28;20060;-75
2024/01/14 04:21:52;;;;;;;67.03;25.00;;;;;;;-3.40;73.68;100494.28;2527698;28;20314;-75
2024/01/14 04:23:06;;;;;;;67.43;27.87;;;;;;;-3.39;73.62;100495.16;2525310;28;20049;-75
2024/01/14 04:24:20;;;;;;;66.83;28.27;;;;;;;-3.41;73.45;100504.41;2522527;28;20304;-75
2024/01/14 04:25:34;;;;;;;67.97;26.80;;;;;;;-3.42;74.04;100505.25;2524899;28;20408;-75
2024/01/14 04:26:48;;;;;;;66.50;27.73;;;;;;;-3.42;73.79;100502.69;2528274;28;20319;-75
2024/01/14 04:28:02;;;;;;;65.80;29.23;;;;;;;-3.43;73.57;100503.47;2522158;28;20054;-75
2024/01/14 04:29:16;;;;;;;60.63;30.87;;;;;;;-3.46;73.72;100506.75;2522690;28;20339;-75
2024/01/14 04:30:29;;;;;;;60.90;29.60;;;;;;;-3.46;73.61;100513.53;2524422;28;20045;-75
2024/01/14 04:31:44;;;;;;;59.13;27.77;;;;;;;-3.46;73.68;100513.53;2528470;28;20295;-75
2024/01/14 04:32:59;;;;;;;67.93;26.90;;;;;;;-3.46;73.61;100506.75;2528085;28;20422;-75
2024/01/14 04:34:13;;;;;;;65.03;28.60;;;;;;;-3.46;73.54;100511.00;2524756;28;20304;-75
2024/01/14 04:35:27;;;;;;;62.70;27.67;;;;;;;-3.43;74.24;100508.56;2530208;28;20285;-75
2024/01/14 04:36:41;;;;;;;52.50;26.17;;;;;;;-3.43;73.75;100512.03;2525168;28;20805;-75
2024/01/14 04:37:54;;;;;;;62.70;30.60;;;;;;;-3.46;73.82;100514.41;2527060;28;20050;-74
2024/01/14 04:39:10;;;;;;;61.90;28.30;;;;;;;-3.46;73.74;100519.50;2529103;28;20686;-74
2024/01/14 04:40:23;;;;;;;72.53;28.70;;;;;;;-3.46;73.95;100513.53;2524218;28;20050;-74
2024/01/14 04:41:38;;;;;;;65.47;31.37;;;;;;;-3.46;73.76;100506.75;2529831;28;20384;-75
2024/01/14 04:42:51;;;;;;;66.53;28.63;;;;;;;-3.46;73.70;100503.34;2527161;28;20061;-75
2024/01/14 04:44:06;;;;;;;59.80;27.93;;;;;;;-3.45;73.71;100505.97;2525105;28;20315;-74
2024/01/14 04:45:20;;;;;;;62.00;29.40;;;;;;;-3.43;74.01;100496.72;2530425;28;20323;-75
2024/01/14 04:46:34;;;;;;;70.10;28.23;;;;;;;-3.40;73.83;100498.53;2522340;28;20309;-75
2024/01/14 04:47:48;;;;;;;66.87;31.00;;;;;;;-3.39;73.89;100501.13;2526160;28;20053;-75
2024/01/14 04:49:03;;;;;;;58.47;26.57;;;;;;;-3.38;73.90;100509.66;2526370;28;20305;-75
2024/01/14 04:50:17;;;;;;;64.07;26.77;;;;;;;-3.39;73.71;100505.38;2530814;28;20494;-75
2024/01/14 04:51:31;;;;;;;62.90;27.57;;;;;;;-3.39;73.97;100513.03;2526528;28;20288;-75
2024/01/14 04:52:45;;;;;;;63.07;27.87;;;;;;;-3.38;74.14;100507.09;2528546;28;20125;-75
2024/01/14 04:53:59;;;;;;;68.67;27.60;;;;;;;-3.39;73.77;100501.13;2522525;28;20311;-75
2024/01/14 04:55:13;;;;;;;64.23;29.00;;;;;;;-3.38;73.76;100507.09;2522088;28;20670;-75
2024/01/14 04:56:27;;;;;;;52.97;25.07;;;;;;;-3.40;74.11;100501.94;2529901;28;20309;-75
2024/01/14 04:57:41;;;;;;;62.83;27.50;;;;;;;-3.39;73.82;100501.13;2524681;28;20049;-75
2024/01/14 04:58:55;;;;;;;61.63;30.40;;;;;;;-3.40;74.49;100501.94;2527342;28;20842;-75
2024/01/14 05:00:10;;;;;;;71.07;32.50;;;;;;;-3.38;74.17;100499.44;2522095;28;20042;-75
2024/01/14 05:01:26;;;;;;;72.03;29.27;;;;;;;-3.36;74.28;100495.28;2530340;28;20366;-75
2024/01/14 05:02:40;;;;;;;72.47;27.70;;;;;;;-3.38;73.97;100496.91;2525401;28;20299;-74
2024/01/14 05:03:54;;;;;;;58.47;25.93;;;;;;;-3.42;73.70;100489.94;2526896;28;20300;-75
2024/01/14 05:05:09;;;;;;;74.73;31.93;;;;;;;-3.42;74.10;100490.78;2529127;28;20060;-75
2024/01/14 05:06:23;;;;;;;61.97;27.23;;;;;;;-3.40;74.24;100501.09;2523869;28;20387;-75
2024/01/14 05:07:37;;;;;;;67.60;32.00;;;;;;;-3.39;73.89;100487.50;2530129;28;20780;-75
2024/01/14 05:08:51;;;;;;;80.27;39.43;;;;;;;-3.37;74.19;100493.56;2522210;28;20316;-75
2024/01/14 05:10:06;;;;;;;55.50;27.83;;;;;;;-3.38;73.73;100492.69;2528474;28;20399;-75
2024/01/14 05:11:20;;;;;;;70.83;27.20;;;;;;;-3.37;73.92;100489.31;2523299;28;20781;-75
2024/01/14 05:12:34;;;;;;;62.77;28.67;;;;;;;-3.36;73.76;100485.94;2530169;28;20300;-75
2024/01/14 05:13:48;;;;;;;75.93;36.77;;;;;;;-3.34;73.81;100486.03;2525319;28;20860;-75
2024/01/14 05:15:02;;;;;;;62.63;26.00;;;;;;;-3.34;74.11;100480.94;2525964;28;20049;-75
2024/01/14 05:16:17;;;;;;;78.67;40.00;;;;;;;-3.36;74.17;100478.28;2529741;28;20304;-75
2024/01/14 05:17:31;;;;;;;55.37;27.80;;;;;;;-3.38;73.98;100472.28;2523796;28;20900;-75
2024/01/14 05:18:45;;;;;;;71.97;37.90;;;;;;;-3.42;73.92;100472.06;2528646;28;20375;-74
2024/01/14 05:19:59;;;;;;;71.53;31.87;;;;;;;-3.45;74.02;100464.28;2527156;28;20502;-74
2024/01/14 05:21:18;;;;;;;96.17;54.00;;;;;;;-3.45;73.90;100467.69;2524808;28;20348;-75
2024/01/14 05:22:31;;;;;;;61.67;29.07;;;;;;;-3.46;74.08;100460.84;2530243;28;20053;-75
2024/01/14 05:23:46;;;;;;;62.13;29.80;;;;;;;-3.47;73.64;100460.78;2521788;28;20289;-75
2024/01/14 05:24:59;;;;;;;71.93;30.20;;;;;;;-3.49;73.64;100457.28;2522307;28;20052;-75
2024/01/14 05:26:14;;;;;;;68.60;34.23;;;;;;;-3.52;74.07;100455.47;2529313;28;20673;-75
2024/01/14 05:27:27;;;;;;;66.87;30.87;;;;;;;-3.52;73.74;100456.34;2522255;28;20053;-74
2024/01/14 05:28:42;;;;;;;79.23;30.63;;;;;;;-3.57;74.19;100452.72;2525051;28;20677;-75
2024/01/14 05:29:55;;;;;;;64.80;31.87;;;;;;;-3.59;73.85;100454.34;2527424;28;20050;-75
2024/01/14 05:31:09;;;;;;;63.53;29.60;;;;;;;-3.61;74.06;100457.63;2527922;28;20314;-75
2024/01/14 05:32:23;;;;;;;77.93;32.80;;;;;;;-3.63;74.00;100456.69;2523681;28;20514;-75
2024/01/14 05:33:37;;;;;;;68.30;27.47;;;;;;;-3.66;74.14;100448.88;2529781;28;20315;-77
2024/01/14 05:34:51;;;;;;;58.97;31.00;;;;;;;-3.67;73.94;100453.09;2522058;28;20042;-75
2024/01/14 05:36:06;;;;;;;75.83;31.83;;;;;;;-3.67;74.13;100458.19;2521668;28;20285;-75
2024/01/14 05:37:21;;;;;;;68.67;31.97;;;;;;;-3.66;74.67;100448.88;2529924;28;20064;-75